createdAt,value
2022-12-01T00:02:24.506Z,7.63
2022-12-01T00:04:51.091Z,7.68
2022-12-01T00:07:17.654Z,8.00
2022-12-01T00:10:04.503Z,9.23
2022-12-01T00:12:31.399Z,10.45
2022-12-01T00:15:01.042Z,9.75
2022-12-01T00:17:29.555Z,7.90
2022-12-01T00:19:56.643Z,10.45
2022-12-01T00:22:23.350Z,9.77
2022-12-01T00:24:49.878Z,10.43
2022-12-01T00:27:16.498Z,10.57
2022-12-01T00:29:43.052Z,11.15
2022-12-01T00:32:09.627Z,11.63
2022-12-01T00:34:37.920Z,11.65
2022-12-01T00:37:05.486Z,10.90
2022-12-01T00:39:32.122Z,10.75
2022-12-01T00:41:58.706Z,10.98
2022-12-01T00:44:25.323Z,11.40
2022-12-01T00:46:51.866Z,11.57
2022-12-01T00:49:18.489Z,11.02
2022-12-01T00:51:45.036Z,10.88
2022-12-01T00:54:11.598Z,10.82
2022-12-01T00:56:38.131Z,9.85
2022-12-01T00:59:04.650Z,9.43
2022-12-01T01:01:31.271Z,9.50
2022-12-01T01:03:58.609Z,9.65
2022-12-01T01:06:25.277Z,10.32
2022-12-01T01:08:51.778Z,9.63
2022-12-01T01:11:18.375Z,11.52
2022-12-01T01:13:44.952Z,10.82
2022-12-01T01:16:16.044Z,8.15
2022-12-01T01:18:42.742Z,10.98
2022-12-01T01:21:12.972Z,12.43
2022-12-01T01:23:39.943Z,12.27
2022-12-01T01:26:12.561Z,12.98
2022-12-01T01:28:41.610Z,11.57
2022-12-01T01:31:11.372Z,8.45
2022-12-01T01:33:38.259Z,8.35
2022-12-01T01:36:05.595Z,8.50
2022-12-01T01:38:33.067Z,7.90
2022-12-01T01:40:59.931Z,9.27
2022-12-01T01:46:23.768Z,7.60
2022-12-01T01:51:42.203Z,10.15
2022-12-01T01:54:15.652Z,9.80
2022-12-01T01:56:44.065Z,9.45
2022-12-01T01:59:15.208Z,8.65
2022-12-01T02:01:41.911Z,9.75
2022-12-01T02:04:08.731Z,7.93
2022-12-01T02:06:35.519Z,10.30
2022-12-01T02:09:02.042Z,9.85
2022-12-01T02:14:52.592Z,8.48
2022-12-01T02:26:09.282Z,8.80
2022-12-01T02:29:07.308Z,8.90
2022-12-01T02:31:43.156Z,8.10
2022-12-01T02:36:58.184Z,8.32
2022-12-01T02:39:37.932Z,7.78
2022-12-01T02:42:32.155Z,7.80
2022-12-01T02:45:02.240Z,7.88
2022-12-01T02:47:29.377Z,8.55
2022-12-01T02:49:58.515Z,8.52
2022-12-01T02:52:27.051Z,8.65
2022-12-01T02:54:54.724Z,11.18
2022-12-01T02:57:21.447Z,8.10
2022-12-01T02:59:52.098Z,8.45
2022-12-01T03:05:09.598Z,11.38
2022-12-01T03:23:56.263Z,9.20
2022-12-01T03:26:25.432Z,8.40
2022-12-01T03:28:57.834Z,8.48
2022-12-01T03:31:31.706Z,8.48
2022-12-01T03:34:05.144Z,8.70
2022-12-01T03:36:38.897Z,8.50
2022-12-01T03:39:13.515Z,8.82
2022-12-01T03:41:47.101Z,9.20
2022-12-01T03:44:22.785Z,9.88
2022-12-01T03:46:56.506Z,8.63
2022-12-01T03:49:25.674Z,10.07
2022-12-01T03:57:20.875Z,11.60
2022-12-01T03:59:48.369Z,13.95
2022-12-01T04:02:16.527Z,12.23
2022-12-01T04:04:43.089Z,12.65
2022-12-01T04:07:13.477Z,12.90
2022-12-01T04:12:31.835Z,11.15
2022-12-01T04:15:01.033Z,10.73
2022-12-01T04:17:28.907Z,10.68
2022-12-01T04:19:55.738Z,10.35
2022-12-01T04:22:23.093Z,12.95
2022-12-01T04:24:49.868Z,11.65
2022-12-01T04:27:16.574Z,11.15
2022-12-01T04:29:43.104Z,11.02
2022-12-01T04:32:09.697Z,11.77
2022-12-01T04:34:36.252Z,12.25
2022-12-01T04:37:03.916Z,13.20
2022-12-01T04:39:30.495Z,10.13
2022-12-01T04:41:57.080Z,11.20
2022-12-01T04:44:23.615Z,11.50
2022-12-01T04:46:51.895Z,11.80
2022-12-01T04:49:19.436Z,10.55
2022-12-01T04:51:46.155Z,9.15
2022-12-01T04:54:12.734Z,11.98
2022-12-01T04:56:39.289Z,11.27
2022-12-01T04:59:05.841Z,10.95
2022-12-01T05:01:32.564Z,11.05
2022-12-01T05:03:59.199Z,11.40
2022-12-01T05:06:27.555Z,11.55
2022-12-01T05:08:56.384Z,10.43
2022-12-01T05:11:24.158Z,10.57
2022-12-01T05:13:51.152Z,12.80
2022-12-01T05:16:20.735Z,11.80
2022-12-01T05:18:49.608Z,10.82
2022-12-01T05:21:17.112Z,11.07
2022-12-01T05:23:45.540Z,11.45
2022-12-01T05:26:12.195Z,11.75
2022-12-01T05:28:40.827Z,11.00
2022-12-01T05:31:07.533Z,11.60
2022-12-01T05:33:34.102Z,10.75
2022-12-01T05:36:00.755Z,10.38
2022-12-01T05:38:27.283Z,10.20
2022-12-01T05:40:55.377Z,11.15
2022-12-01T05:43:28.638Z,10.90
2022-12-01T05:45:57.001Z,11.27
2022-12-01T05:48:24.188Z,10.45
2022-12-01T05:50:50.795Z,10.18
2022-12-01T05:53:18.450Z,8.82
2022-12-01T05:55:45.399Z,8.80
2022-12-01T05:58:13.323Z,8.20
2022-12-01T06:00:45.808Z,8.57
2022-12-01T06:03:13.091Z,7.78
2022-12-01T06:05:40.044Z,10.63
2022-12-01T06:08:06.771Z,12.23
2022-12-01T06:10:33.296Z,9.60
2022-12-01T06:12:59.871Z,10.90
2022-12-01T06:15:27.213Z,10.65
2022-12-01T06:17:53.743Z,12.10
2022-12-01T06:20:20.544Z,12.70
2022-12-01T06:22:48.432Z,11.70
2022-12-01T06:25:15.124Z,12.10
2022-12-01T06:27:41.636Z,12.20
2022-12-01T06:30:08.959Z,10.63
2022-12-01T06:32:35.578Z,10.18
2022-12-01T06:35:02.747Z,12.55
2022-12-01T06:37:29.270Z,9.23
2022-12-01T06:39:55.821Z,11.10
2022-12-01T06:42:22.775Z,11.82
2022-12-01T06:44:49.290Z,9.50
2022-12-01T06:47:15.980Z,9.27
2022-12-01T06:49:42.766Z,9.65
2022-12-01T06:52:10.059Z,9.90
2022-12-01T06:54:37.569Z,12.45
2022-12-01T06:57:04.615Z,10.57
2022-12-01T06:59:31.640Z,10.15
2022-12-01T07:01:58.956Z,10.38
2022-12-01T07:04:25.668Z,10.98
2022-12-01T07:06:52.227Z,10.20
2022-12-01T07:09:18.911Z,11.02
2022-12-01T07:11:45.442Z,11.73
2022-12-01T07:14:20.158Z,11.68
2022-12-01T07:16:46.788Z,9.75
2022-12-01T07:19:13.346Z,26.35
2022-12-01T07:21:40.214Z,14.88
2022-12-01T07:24:07.207Z,9.80
2022-12-01T07:26:34.104Z,9.20
2022-12-01T07:29:00.690Z,9.95
2022-12-01T07:31:27.287Z,9.70
2022-12-01T07:33:53.991Z,8.40
2022-12-01T07:36:20.598Z,9.45
2022-12-01T07:38:47.153Z,8.35
2022-12-01T07:41:16.960Z,8.75
2022-12-01T07:43:43.490Z,6.57
2022-12-01T07:46:22.349Z,5.43
2022-12-01T07:48:50.364Z,5.50
2022-12-01T07:51:17.395Z,6.28
2022-12-01T07:53:45.615Z,5.75
2022-12-01T07:56:13.100Z,5.03
2022-12-01T07:58:39.952Z,6.28
2022-12-01T08:01:09.276Z,6.65
2022-12-01T08:03:36.498Z,7.85
2022-12-01T08:06:04.696Z,7.13
2022-12-01T08:08:33.155Z,7.38
2022-12-01T08:11:02.192Z,7.97
2022-12-01T08:13:29.436Z,6.05
2022-12-01T08:15:56.110Z,5.88
2022-12-01T08:18:23.537Z,8.38
2022-12-01T08:20:51.053Z,7.38
2022-12-01T08:23:17.622Z,10.77
2022-12-01T08:25:44.165Z,8.43
2022-12-01T08:28:10.733Z,8.32
2022-12-01T08:30:37.284Z,8.88
2022-12-01T08:33:03.853Z,6.97
2022-12-01T08:35:30.456Z,7.65
2022-12-01T08:37:56.984Z,8.38
2022-12-01T08:40:23.541Z,8.30
2022-12-01T08:42:52.259Z,9.50
2022-12-01T08:45:19.501Z,10.38
2022-12-01T08:47:46.202Z,11.48
2022-12-01T08:50:12.920Z,11.88
2022-12-01T08:52:39.513Z,10.52
2022-12-01T08:55:07.288Z,7.60
2022-12-01T08:57:33.868Z,8.35
2022-12-01T09:00:00.450Z,8.68
2022-12-01T09:02:27.334Z,8.85
2022-12-01T09:04:53.961Z,8.85
2022-12-01T09:07:26.039Z,8.15
2022-12-01T09:10:39.983Z,6.95
2022-12-01T09:13:06.539Z,8.32
2022-12-01T09:15:33.063Z,10.35
2022-12-01T09:17:59.653Z,10.55
2022-12-01T09:20:26.263Z,10.88
2022-12-01T09:22:52.912Z,11.95
2022-12-01T09:25:19.433Z,12.18
2022-12-01T09:27:46.140Z,13.93
2022-12-01T09:30:12.928Z,10.40
2022-12-01T09:32:39.475Z,9.80
2022-12-01T09:35:06.137Z,8.45
2022-12-01T09:37:32.652Z,8.45
2022-12-01T09:39:59.230Z,8.07
2022-12-01T09:42:32.230Z,6.68
2022-12-01T09:45:05.002Z,10.40
2022-12-01T09:47:35.404Z,10.40
2022-12-01T09:52:43.535Z,8.48
2022-12-01T09:55:13.704Z,7.15
2022-12-01T09:57:41.255Z,7.90
2022-12-01T10:00:14.834Z,10.57
2022-12-01T10:02:48.999Z,8.60
2022-12-01T10:05:20.068Z,7.30
2022-12-01T10:10:31.111Z,8.00
2022-12-01T10:12:57.863Z,6.38
2022-12-01T10:15:39.768Z,7.20
2022-12-01T10:26:18.513Z,8.88
2022-12-01T10:36:56.959Z,8.57
2022-12-01T10:39:36.814Z,7.82
2022-12-01T10:42:13.961Z,7.20
2022-12-01T10:44:41.351Z,7.78
2022-12-01T10:47:19.962Z,8.55
2022-12-01T10:49:46.968Z,6.15
2022-12-01T10:52:35.501Z,6.47
2022-12-01T10:55:03.665Z,6.40
2022-12-01T10:57:31.423Z,12.68
2022-12-01T11:00:02.218Z,13.48
2022-12-01T11:02:31.718Z,9.50
2022-12-01T11:05:02.399Z,8.82
2022-12-01T11:12:45.628Z,7.55
2022-12-01T11:15:31.356Z,6.97
2022-12-01T11:18:02.042Z,6.47
2022-12-01T11:20:44.295Z,6.93
2022-12-01T11:29:23.273Z,10.60
2022-12-01T11:31:52.893Z,10.27
2022-12-01T11:37:01.412Z,11.55
2022-12-01T11:42:16.961Z,7.07
2022-12-01T11:44:56.051Z,8.05
2022-12-01T11:47:26.620Z,7.03
2022-12-01T11:49:57.648Z,6.95
2022-12-01T11:52:30.670Z,7.25
2022-12-01T11:57:35.795Z,6.10
2022-12-01T12:00:12.773Z,5.93
2022-12-01T12:14:36.376Z,5.90
2022-12-01T12:34:22.956Z,5.97
2022-12-01T12:37:10.037Z,18.40
2022-12-01T12:53:34.796Z,7.68
2022-12-01T12:56:06.825Z,6.57
2022-12-01T12:58:40.290Z,8.38
2022-12-01T13:01:28.109Z,8.85
2022-12-01T13:09:27.096Z,7.95
2022-12-01T13:12:04.788Z,7.82
2022-12-01T13:19:51.686Z,7.68
2022-12-01T13:22:20.638Z,6.80
2022-12-01T13:24:47.360Z,6.32
2022-12-01T13:27:21.048Z,7.30
2022-12-01T13:29:50.821Z,7.50
2022-12-01T13:35:36.552Z,8.07
2022-12-01T13:38:30.263Z,7.05
2022-12-01T13:49:36.946Z,8.65
2022-12-01T13:57:43.104Z,7.10
2022-12-01T14:06:07.716Z,10.23
2022-12-01T14:08:37.906Z,10.57
2022-12-01T14:11:24.356Z,9.80
2022-12-01T14:16:46.964Z,6.65
2022-12-01T14:19:53.380Z,8.48
2022-12-01T14:25:30.650Z,8.20
2022-12-01T14:28:01.219Z,8.77
2022-12-01T14:41:48.102Z,8.82
2022-12-01T14:50:02.820Z,9.00
2022-12-01T14:55:16.720Z,9.32
2022-12-01T14:57:49.321Z,9.30
2022-12-01T15:02:55.893Z,8.02
2022-12-01T15:05:27.291Z,9.60
2022-12-01T15:08:18.669Z,10.02
2022-12-01T15:10:54.724Z,9.45
2022-12-01T15:18:37.281Z,9.73
2022-12-01T15:21:28.454Z,10.93
2022-12-01T15:26:51.293Z,14.38
2022-12-01T15:29:44.776Z,11.82
2022-12-01T15:32:16.119Z,9.50
2022-12-01T15:34:45.470Z,9.48
2022-12-01T15:37:16.785Z,10.77
2022-12-01T15:39:51.289Z,10.10
2022-12-01T15:42:29.548Z,10.18
2022-12-01T15:45:00.541Z,10.38
2022-12-01T15:47:36.052Z,10.90
2022-12-01T15:50:05.099Z,11.15
2022-12-01T15:52:32.767Z,9.65
2022-12-01T15:55:04.598Z,11.75
2022-12-01T15:57:31.212Z,11.93
2022-12-01T15:59:57.985Z,17.88
2022-12-01T16:10:36.893Z,11.23
2022-12-01T16:13:43.227Z,11.25
2022-12-01T16:19:19.344Z,11.93
2022-12-01T16:21:53.011Z,14.95
2022-12-01T16:24:28.400Z,13.35
2022-12-01T16:27:00.162Z,12.95
2022-12-01T16:29:28.692Z,12.75
2022-12-01T16:32:20.237Z,14.13
2022-12-01T16:34:46.742Z,14.40
2022-12-01T16:37:14.485Z,13.75
2022-12-01T16:39:41.560Z,14.35
2022-12-01T16:42:12.659Z,15.70
2022-12-01T16:44:39.303Z,14.73
2022-12-01T16:47:17.008Z,14.32
2022-12-01T16:49:43.922Z,13.52
2022-12-01T16:54:57.272Z,13.23
2022-12-01T16:57:23.846Z,12.23
2022-12-01T16:59:50.361Z,12.57
2022-12-01T17:02:16.904Z,14.00
2022-12-01T17:04:43.576Z,12.57
2022-12-01T17:07:10.131Z,13.25
2022-12-01T17:09:36.996Z,13.30
2022-12-01T17:12:03.719Z,12.73
2022-12-01T17:14:30.497Z,11.73
2022-12-01T17:17:00.347Z,13.15
2022-12-01T17:19:27.038Z,13.90
2022-12-01T17:21:55.444Z,14.13
2022-12-01T17:24:21.978Z,13.00
2022-12-01T17:26:48.512Z,15.43
2022-12-01T17:29:15.079Z,14.25
2022-12-01T17:31:41.678Z,12.18
2022-12-01T17:34:08.266Z,12.77
2022-12-01T17:36:34.926Z,14.73
2022-12-01T17:39:01.483Z,13.50
2022-12-01T17:41:32.516Z,13.30
2022-12-01T17:44:02.742Z,13.20
2022-12-01T17:46:30.208Z,11.63
2022-12-01T17:48:56.802Z,14.02
2022-12-01T17:51:23.388Z,13.85
2022-12-01T17:53:50.010Z,12.82
2022-12-01T17:56:17.566Z,14.73
2022-12-01T17:58:44.215Z,14.10
2022-12-01T18:01:15.260Z,13.27
2022-12-01T18:03:42.291Z,12.13
2022-12-01T18:06:09.137Z,13.50
2022-12-01T18:08:36.637Z,13.27
2022-12-01T18:11:07.929Z,14.35
2022-12-01T18:13:38.993Z,25.25
2022-12-01T18:16:09.178Z,16.70
2022-12-01T18:18:37.265Z,12.48
2022-12-01T18:21:09.303Z,15.20
2022-12-01T18:23:36.653Z,15.93
2022-12-01T18:26:15.165Z,15.52
2022-12-01T18:28:42.815Z,13.27
2022-12-01T18:31:14.804Z,13.38
2022-12-01T18:33:43.586Z,12.55
2022-12-01T18:36:14.685Z,14.93
2022-12-01T18:38:41.346Z,17.42
2022-12-01T18:41:08.650Z,14.73
2022-12-01T18:43:36.801Z,14.15
2022-12-01T18:46:05.231Z,14.13
2022-12-01T18:48:32.793Z,14.18
2022-12-01T18:51:04.536Z,13.88
2022-12-01T18:53:31.694Z,15.13
2022-12-01T18:56:03.412Z,13.75
2022-12-01T18:58:30.840Z,12.82
2022-12-01T19:00:57.991Z,12.80
2022-12-01T19:03:24.834Z,14.20
2022-12-01T19:05:51.406Z,11.10
2022-12-01T19:08:18.022Z,11.80
2022-12-01T19:10:44.615Z,12.68
2022-12-01T19:13:11.589Z,13.55
2022-12-01T19:15:38.143Z,12.38
2022-12-01T19:18:04.790Z,13.48
2022-12-01T19:20:31.319Z,13.90
2022-12-01T19:22:58.024Z,12.68
2022-12-01T19:25:24.629Z,11.75
2022-12-01T19:27:53.168Z,13.15
2022-12-01T19:30:19.899Z,12.68
2022-12-01T19:32:46.600Z,13.20
2022-12-01T19:35:13.210Z,12.40
2022-12-01T19:37:39.806Z,14.05
2022-12-01T19:40:07.155Z,12.50
2022-12-01T19:42:33.741Z,12.75
2022-12-01T19:45:01.203Z,13.38
2022-12-01T19:47:32.020Z,11.88
2022-12-01T19:49:58.632Z,10.15
2022-12-01T19:52:25.207Z,12.57
2022-12-01T19:54:52.100Z,9.82
2022-12-01T19:57:18.870Z,9.23
2022-12-01T19:59:45.467Z,10.02
2022-12-01T20:02:12.045Z,10.30
2022-12-01T20:04:39.585Z,11.20
2022-12-01T20:07:07.081Z,9.80
2022-12-01T20:09:33.797Z,7.88
2022-12-01T20:12:00.351Z,9.98
2022-12-01T20:14:26.935Z,7.65
2022-12-01T20:16:55.688Z,7.68
2022-12-01T20:19:22.359Z,8.52
2022-12-01T20:21:48.962Z,9.02
2022-12-01T20:24:20.253Z,10.45
2022-12-01T20:26:50.603Z,9.00
2022-12-01T20:29:22.401Z,7.88
2022-12-01T20:31:50.766Z,7.32
2022-12-01T20:34:25.520Z,8.63
2022-12-01T20:36:52.690Z,6.80
2022-12-01T20:39:20.141Z,9.40
2022-12-01T20:41:47.034Z,9.13
2022-12-01T20:44:14.427Z,9.48
2022-12-01T20:46:41.172Z,7.55
2022-12-01T20:49:08.342Z,8.02
2022-12-01T20:51:35.084Z,10.40
2022-12-01T20:56:50.602Z,9.18
2022-12-01T20:59:17.358Z,8.13
2022-12-01T21:01:43.931Z,9.38
2022-12-01T21:04:10.541Z,8.48
2022-12-01T21:06:37.131Z,8.40
2022-12-01T21:09:04.648Z,9.52
2022-12-01T21:11:56.474Z,6.90
2022-12-01T21:14:32.625Z,8.80
2022-12-01T21:17:09.184Z,9.00
2022-12-01T21:19:45.525Z,7.72
2022-12-01T21:22:12.870Z,8.02
2022-12-01T21:24:43.802Z,8.90
2022-12-01T21:27:15.130Z,8.05
2022-12-01T21:29:44.960Z,9.13
2022-12-01T21:34:50.917Z,6.90
2022-12-01T21:37:25.332Z,7.30
2022-12-01T21:39:54.828Z,7.95
2022-12-01T21:42:25.340Z,6.63
2022-12-01T21:47:21.955Z,5.85
2022-12-01T21:49:52.623Z,6.57
2022-12-01T21:52:25.140Z,6.80
2022-12-01T21:54:51.950Z,5.35
2022-12-01T21:57:43.083Z,7.15
2022-12-01T22:06:06.919Z,5.30
2022-12-01T22:08:38.623Z,4.82
2022-12-01T22:13:48.215Z,4.15
2022-12-01T22:16:19.260Z,4.90
2022-12-01T22:18:50.631Z,4.93
2022-12-01T22:21:41.139Z,3.75
2022-12-01T22:26:47.927Z,4.57
2022-12-01T22:29:30.954Z,5.57
2022-12-01T22:32:25.875Z,5.85
2022-12-01T22:34:58.130Z,4.15
2022-12-01T22:37:35.961Z,5.95
2022-12-01T22:40:32.308Z,5.28
2022-12-01T22:43:13.893Z,5.57
2022-12-01T22:45:41.086Z,5.63
2022-12-01T22:48:35.901Z,4.97
2022-12-01T22:54:22.832Z,9.40
2022-12-01T22:56:53.729Z,4.93
2022-12-01T22:59:23.375Z,3.65
2022-12-01T23:01:56.934Z,4.30
2022-12-01T23:04:31.175Z,3.08
2022-12-01T23:09:40.388Z,5.88
2022-12-01T23:14:49.307Z,4.45
2022-12-01T23:17:21.732Z,3.65
2022-12-01T23:19:50.640Z,3.92
2022-12-01T23:22:17.685Z,3.80
2022-12-01T23:24:45.291Z,3.90
2022-12-01T23:27:12.183Z,3.83
2022-12-01T23:29:38.927Z,3.65
2022-12-01T23:32:05.972Z,3.63
2022-12-01T23:34:33.923Z,3.45
2022-12-01T23:37:01.502Z,4.38
2022-12-01T23:39:35.551Z,4.82
2022-12-01T23:42:02.901Z,3.33
2022-12-01T23:47:20.342Z,5.15
2022-12-01T23:49:47.964Z,4.50
2022-12-01T23:52:21.018Z,6.05
2022-12-01T23:54:48.584Z,5.03
2022-12-01T23:57:25.184Z,4.82
2022-12-01T23:59:56.101Z,4.47
